Beverly, KS (67423)

11:25 PM CST on December 21, 2014 (GMT -0600)
Rolling Hills Wildlife Adv. | Change Station
CLOSE
Current Station
Personal Weather Station
Location: Salina, KS
Elevation: 1315 ft
Nearby Weather Stations

Elev 1315 ft 38.85 °N, 97.76 °W | Updated 2 seconds ago

Overcast
Overcast
43.9 °F
Feels Like 39 °F
N
8.0
Wind Variable Wind from SE
Gusts 13.0 mph

Today
High -- | Low -- °F
--% Chance of Precip.
Yesterday
High -- | Low -- °F
Precip. -- in
7:47 AM 5:13 PM
New Moon, 0% visible
Pressure 29.65 in
Visibility 5.0 miles
Clouds Overcast 700 ft
Windchill 39 °F
Dew Point 42 °F
Humidity 94%
Rainfall 0.00 in
Snow Depth Not available.
UV 0.0 out of 12
Pollen .10 out of 12
Air Quality Not available.
Flu Activity Not available.
METAR KSLN 220453Z 18011G18KT 5SM BR OVC007 07/06 A2963 RMK AO2 SLP038 T00720061

More Conditions Fewer Conditions

Pressure 29.65 in
Visibility 5.0 miles
Clouds Overcast 700 ft
Windchill 39 °F
Dew Point 42 °F
Humidity 94%
Rainfall 0.00 in
Snow Depth Not available.
UV 0.0 out of 12
Pollen .10 out of 12
Air Quality Not available.
Flu Activity Not available.
METAR KSLN 220453Z 18011G18KT 5SM BR OVC007 07/06 A2963 RMK AO2 SLP038 T00720061

More Conditions Fewer Conditions

10-Day Weather Forecast

Almanac

Astronomy

Dec. 21, 2014 Rise Set
Actual Time
Civil Twilight
Nautical Twilight
Astronomical Twilight
Moon
Length of Visible Light
Length of Day
Tomorrow will be .
, % of the Moon is Illuminated

Today's Extremes

State Highs State Lows

Community

WunderPhotos

Upload Photos

1,779,549 photos uploaded!

WunderBlogs® & News

Nearby

Air Quality

  Air Quality AQ Index Pollutant
Not available.

Snow Depth

Station Depth Elevation

Earthquake Activity

City Distance Mag. Time & Date
Minimum magnitude displayed is 2.5.

Coastal Water Temperatures

Place Temperature

Nearby Weather Stations